Time;durP1;ratioP1;P1;durP2;ratioP2;P2;SDS_P1;SDS_P2;PMS_P1;PMS_P2;Temp;Humidity;BMP_temperature;BMP_pressure;BME280_temperature;BME280_humidity;BME280_pressure;Samples;Min_cycle;Max_cycle;Signal;HPM_P1;HPM_P2
2023/09/30 00:00:58;;;;;;;108.30;55.90;;;20.80;78.70;;;;;;4963952;28;90959;-38
2023/09/30 00:03:23;;;;;;;107.85;55.95;;;20.80;78.60;;;;;;4967665;28;89616;-38
2023/09/30 00:05:49;;;;;;;107.45;55.90;;;20.80;78.50;;;;;;4972527;28;90483;-38
2023/09/30 00:08:15;;;;;;;107.78;55.85;;;20.80;78.50;;;;;;4966163;28;89875;-39
2023/09/30 00:10:40;;;;;;;109.45;55.92;;;20.80;78.50;;;;;;4970322;28;89898;-38
2023/09/30 00:13:09;;;;;;;106.55;55.83;;;20.80;78.40;;;;;;4967404;28;91612;-38
2023/09/30 00:15:34;;;;;;;107.03;56.05;;;20.80;78.40;;;;;;4968732;28;89912;-38
2023/09/30 00:18:01;;;;;;;108.00;55.85;;;20.80;78.40;;;;;;4969655;28;89835;-39
2023/09/30 00:20:27;;;;;;;108.13;55.90;;;20.80;78.30;;;;;;4966946;28;89946;-39
2023/09/30 00:22:53;;;;;;;106.40;55.85;;;20.80;78.30;;;;;;4965092;28;88706;-39
2023/09/30 00:25:18;;;;;;;107.63;55.72;;;20.80;78.30;;;;;;4969694;28;90962;-39
2023/09/30 00:27:44;;;;;;;107.50;55.83;;;20.70;78.30;;;;;;4970082;28;89849;-39
2023/09/30 00:30:10;;;;;;;108.60;55.75;;;20.70;78.30;;;;;;4968488;28;91007;-39
2023/09/30 00:32:35;;;;;;;107.82;55.70;;;20.80;78.20;;;;;;4972794;28;89578;-39
2023/09/30 00:35:02;;;;;;;108.70;55.83;;;20.80;78.30;;;;;;4966039;28;89639;-39
2023/09/30 00:37:28;;;;;;;108.72;56.22;;;20.70;78.20;;;;;;4966878;28;89655;-39
2023/09/30 00:39:53;;;;;;;107.32;55.75;;;20.70;78.20;;;;;;4963198;28;90004;-39
2023/09/30 00:42:20;;;;;;;107.80;55.72;;;20.70;78.20;;;;;;4972143;28;89329;-39
2023/09/30 00:44:46;;;;;;;108.53;56.30;;;20.60;78.20;;;;;;4968534;28;90100;-39
2023/09/30 00:47:14;;;;;;;107.35;56.05;;;20.70;78.30;;;;;;4952557;28;89453;-39
2023/09/30 00:49:42;;;;;;;107.80;56.17;;;20.60;78.20;;;;;;4967411;28;89231;-39
2023/09/30 00:52:07;;;;;;;108.32;56.15;;;20.60;78.20;;;;;;4968537;28;89500;-39
2023/09/30 00:54:35;;;;;;;107.32;55.58;;;20.60;78.30;;;;;;4967233;28;90949;-39
2023/09/30 00:57:01;;;;;;;107.78;55.50;;;20.60;78.40;;;;;;4964238;28;89899;-39
2023/09/30 00:59:30;;;;;;;108.50;56.00;;;20.60;78.30;;;;;;4970802;28;90098;-39
2023/09/30 01:01:58;;;;;;;107.47;55.65;;;20.60;78.10;;;;;;4963889;28;90003;-39
2023/09/30 01:04:26;;;;;;;107.72;55.85;;;20.60;78.10;;;;;;4965075;28;90341;-41
2023/09/30 01:06:51;;;;;;;107.15;55.88;;;20.60;78.00;;;;;;4951166;28;90139;-40
2023/09/30 01:09:17;;;;;;;106.95;55.72;;;20.60;78.00;;;;;;4963583;28;89826;-39
2023/09/30 01:11:44;;;;;;;108.47;56.15;;;20.60;78.10;;;;;;4968827;28;89434;-39
2023/09/30 01:14:28;;;;;;;107.18;55.83;;;20.60;77.80;;;;;;4966115;28;90590;-39
2023/09/30 01:16:54;;;;;;;107.18;55.83;;;20.60;77.80;;;;;;4968270;28;90037;-39
2023/09/30 01:19:19;;;;;;;106.90;55.28;;;20.60;77.70;;;;;;4968503;28;90521;-40
2023/09/30 01:21:48;;;;;;;107.50;55.95;;;20.60;77.80;;;;;;4963515;28;89573;-39
2023/09/30 01:24:17;;;;;;;107.43;55.80;;;20.50;77.90;;;;;;4970690;28;89346;-40
2023/09/30 01:26:43;;;;;;;106.63;55.45;;;20.50;77.90;;;;;;4964714;28;90174;-40
2023/09/30 01:29:12;;;;;;;107.20;55.38;;;20.50;77.90;;;;;;4965703;28;89514;-40
2023/09/30 01:31:39;;;;;;;107.50;55.72;;;20.60;78.00;;;;;;4965624;28;95231;-39
2023/09/30 01:34:05;;;;;;;107.53;55.85;;;20.50;77.90;;;;;;4970762;28;89388;-39
2023/09/30 01:36:31;;;;;;;107.80;56.28;;;20.50;77.80;;;;;;4971788;28;89244;-40
2023/09/30 01:38:56;;;;;;;106.13;55.78;;;20.50;77.90;;;;;;4949003;28;90064;-39
2023/09/30 01:41:22;;;;;;;107.30;55.97;;;20.50;77.80;;;;;;4967852;28;91228;-39
2023/09/30 01:43:48;;;;;;;108.13;55.78;;;20.50;77.70;;;;;;4964763;28;91821;-39
2023/09/30 01:46:14;;;;;;;108.38;56.22;;;20.50;78.60;;;;;;4968861;28;90132;-39
2023/09/30 01:48:39;;;;;;;107.22;55.45;;;20.40;77.80;;;;;;4973161;28;91081;-39
2023/09/30 01:51:06;;;;;;;108.45;56.03;;;20.50;78.00;;;;;;4970122;28;89992;-39
2023/09/30 01:53:32;;;;;;;107.65;56.05;;;20.40;77.80;;;;;;4965564;28;89521;-39
2023/09/30 01:55:57;;;;;;;108.57;56.22;;;20.40;77.70;;;;;;4967696;28;90043;-40
2023/09/30 01:58:24;;;;;;;107.20;55.90;;;20.40;77.70;;;;;;4970353;28;89942;-39
2023/09/30 02:00:50;;;;;;;106.85;55.83;;;20.40;77.90;;;;;;4963173;28;89294;-40
2023/09/30 02:03:17;;;;;;;106.82;55.92;;;20.40;77.70;;;;;;4969773;28;89989;-39
2023/09/30 02:05:42;;;;;;;106.20;55.70;;;20.40;77.60;;;;;;4962382;28;89515;-40
2023/09/30 02:08:08;;;;;;;107.35;55.83;;;20.40;77.70;;;;;;4966799;28;91129;-39
2023/09/30 02:10:34;;;;;;;107.45;55.95;;;20.40;77.70;;;;;;4965537;28;90776;-39
2023/09/30 02:13:00;;;;;;;108.53;55.70;;;20.40;77.70;;;;;;4962437;28;92048;-39
2023/09/30 02:15:26;;;;;;;108.55;56.22;;;20.40;77.60;;;;;;4963111;28;89862;-39
2023/09/30 02:17:52;;;;;;;108.75;56.05;;;20.40;77.50;;;;;;4965792;28;90110;-39
2023/09/30 02:20:22;;;;;;;107.90;56.45;;;20.50;77.50;;;;;;4990197;22;95059;-81
2023/09/30 02:22:52;;;;;;;107.63;56.65;;;20.40;77.30;;;;;;4959647;28;92605;-82
2023/09/30 02:25:18;;;;;;;107.65;56.17;;;20.40;77.30;;;;;;4981118;28;89583;-81
2023/09/30 02:27:45;;;;;;;108.80;57.35;;;20.40;77.50;;;;;;4976843;28;90532;-83
2023/09/30 02:30:16;;;;;;;108.05;56.38;;;20.40;77.40;;;;;;5005451;28;90325;-82
2023/09/30 02:32:42;;;;;;;107.25;56.28;;;20.30;77.40;;;;;;4998052;28;91085;-83
2023/09/30 02:35:10;;;;;;;107.57;56.88;;;20.40;77.30;;;;;;4966054;28;93508;-80
2023/09/30 02:37:36;;;;;;;107.45;56.50;;;20.40;77.30;;;;;;4955938;28;89843;-82
2023/09/30 02:40:09;;;;;;;108.78;56.83;;;20.30;77.30;;;;;;4958488;28;94966;-81
2023/09/30 02:42:38;;;;;;;108.63;56.67;;;20.40;77.30;;;;;;4972155;28;90141;-81
2023/09/30 02:45:08;;;;;;;109.05;57.38;;;20.30;77.20;;;;;;4952436;28;92687;-82
2023/09/30 02:47:34;;;;;;;107.47;56.70;;;20.30;77.20;;;;;;4974384;28;89403;-80
2023/09/30 02:50:00;;;;;;;110.03;56.58;;;20.30;77.30;;;;;;4962147;28;89429;-81
2023/09/30 02:52:28;;;;;;;107.18;56.13;;;20.30;78.00;;;;;;4959118;28;93285;-83
2023/09/30 02:54:54;;;;;;;107.50;56.35;;;20.30;77.20;;;;;;4978028;28;92859;-84
2023/09/30 02:57:20;;;;;;;107.75;56.20;;;20.30;77.10;;;;;;4960261;28;90405;-83
2023/09/30 02:59:47;;;;;;;107.03;56.33;;;20.30;77.10;;;;;;4960440;28;89750;-83
2023/09/30 03:02:13;;;;;;;107.30;56.30;;;20.30;77.10;;;;;;4959080;28;95420;-83
2023/09/30 03:04:38;;;;;;;106.18;56.15;;;20.30;77.00;;;;;;4958129;28;93166;-83
2023/09/30 03:07:05;;;;;;;106.13;56.55;;;20.30;77.70;;;;;;4973373;28;89605;-84
2023/09/30 03:09:31;;;;;;;107.38;56.08;;;20.20;77.00;;;;;;4973876;28;95937;-83
2023/09/30 03:11:59;;;;;;;107.43;56.45;;;20.20;77.10;;;;;;4972557;28;91315;-84
2023/09/30 03:14:25;;;;;;;108.43;56.45;;;20.20;77.10;;;;;;4973649;28;96166;-83
2023/09/30 03:16:50;;;;;;;105.82;56.13;;;20.20;77.00;;;;;;4965914;28;90017;-82
2023/09/30 03:19:17;;;;;;;109.78;56.53;;;20.20;77.00;;;;;;4954522;28;89508;-82
2023/09/30 03:21:42;;;;;;;106.15;56.35;;;20.20;76.90;;;;;;4962855;28;91317;-83
2023/09/30 03:24:08;;;;;;;107.35;56.30;;;20.20;76.90;;;;;;4953470;28;92118;-83
2023/09/30 03:26:35;;;;;;;107.75;56.45;;;20.10;77.00;;;;;;4948100;28;89598;-84
2023/09/30 03:29:01;;;;;;;109.43;56.53;;;20.20;76.90;;;;;;4975875;28;89454;-83
2023/09/30 03:31:26;;;;;;;107.05;56.58;;;20.20;76.80;;;;;;4946502;28;92772;-82
2023/09/30 03:33:55;;;;;;;107.55;56.33;;;20.20;76.70;;;;;;4952913;28;92353;-83
2023/09/30 03:36:24;;;;;;;106.60;56.00;;;20.10;76.70;;;;;;4949445;28;89453;-83
2023/09/30 03:38:50;;;;;;;105.63;55.95;;;20.20;76.70;;;;;;4972246;28;88485;-84
2023/09/30 03:41:16;;;;;;;108.88;56.25;;;20.10;76.60;;;;;;4952677;28;93117;-83
2023/09/30 03:43:41;;;;;;;106.82;56.47;;;20.10;76.60;;;;;;4949284;28;92668;-82
2023/09/30 03:46:11;;;;;;;108.35;56.55;;;20.10;76.60;;;;;;4970949;28;90453;-82
2023/09/30 03:48:39;;;;;;;106.93;56.17;;;20.10;76.60;;;;;;4970096;28;89544;-83
2023/09/30 03:51:14;;;;;;;106.38;56.03;;;20.10;76.50;;;;;;4950948;28;93125;-83
2023/09/30 03:53:44;;;;;;;108.65;57.22;;;20.00;76.50;;;;;;4947956;28;92220;-87
2023/09/30 03:56:14;;;;;;;106.35;56.15;;;20.10;76.60;;;;;;4947663;28;89414;-85
2023/09/30 03:58:41;;;;;;;106.63;56.03;;;20.00;76.60;;;;;;4951807;28;90231;-84
2023/09/30 04:01:13;;;;;;;105.63;55.65;;;20.00;76.50;;;;;;4965598;28;92113;-85
2023/09/30 04:03:39;;;;;;;107.43;56.40;;;20.00;76.50;;;;;;4947969;28;92802;-84
2023/09/30 04:06:09;;;;;;;106.15;55.97;;;20.00;76.60;;;;;;4951649;28;89315;-85
2023/09/30 04:08:35;;;;;;;108.68;56.33;;;20.00;76.40;;;;;;4951048;28;89167;-85
2023/09/30 04:11:02;;;;;;;107.22;56.33;;;20.00;76.30;;;;;;4948096;28;93632;-85
2023/09/30 04:13:29;;;;;;;105.55;56.13;;;20.00;76.20;;;;;;4951255;28;92770;-85
2023/09/30 04:15:55;;;;;;;107.47;56.20;;;20.00;76.10;;;;;;4970979;28;90780;-85
2023/09/30 04:18:21;;;;;;;105.53;55.92;;;20.00;76.10;;;;;;4950272;28;89523;-83
2023/09/30 04:20:47;;;;;;;106.43;56.33;;;20.00;76.00;;;;;;4977598;28;90013;-84
2023/09/30 04:23:13;;;;;;;109.25;56.53;;;20.00;76.00;;;;;;4954094;28;91331;-86
2023/09/30 04:25:40;;;;;;;106.13;56.47;;;20.00;76.10;;;;;;4969558;28;89152;-85
2023/09/30 04:28:07;;;;;;;105.38;55.85;;;20.00;76.00;;;;;;4957873;28;89846;-85
2023/09/30 04:30:32;;;;;;;105.68;55.75;;;20.00;75.90;;;;;;4971304;28;89258;-85
2023/09/30 04:32:59;;;;;;;106.35;56.22;;;20.00;75.90;;;;;;4971987;28;89592;-85
2023/09/30 04:35:25;;;;;;;106.18;55.92;;;20.00;75.90;;;;;;4952890;28;90119;-85
2023/09/30 04:37:51;;;;;;;105.00;55.75;;;20.00;75.90;;;;;;4975475;28;89743;-84
2023/09/30 04:40:19;;;;;;;107.63;56.13;;;19.90;75.90;;;;;;4952729;28;92877;-85
2023/09/30 04:42:49;;;;;;;106.20;56.20;;;19.90;75.90;;;;;;4972849;28;89993;-84
2023/09/30 04:45:21;;;;;;;105.68;55.95;;;19.90;75.80;;;;;;4970778;28;89279;-85
2023/09/30 04:47:49;;;;;;;104.80;55.58;;;19.90;75.80;;;;;;4971972;28;89232;-83
2023/09/30 04:50:15;;;;;;;106.25;56.10;;;19.90;75.80;;;;;;4967972;28;90129;-83
2023/09/30 04:52:41;;;;;;;106.68;56.10;;;19.90;75.80;;;;;;4955331;28;91231;-83
2023/09/30 04:55:08;;;;;;;106.00;55.83;;;19.90;75.80;;;;;;4974626;28;89124;-84
2023/09/30 04:57:33;;;;;;;106.43;56.13;;;19.90;75.70;;;;;;4969576;28;90788;-84
2023/09/30 04:59:59;;;;;;;105.50;55.88;;;19.90;75.80;;;;;;4949874;28;93949;-84
2023/09/30 05:02:25;;;;;;;107.03;55.97;;;19.90;75.60;;;;;;4948667;28;93309;-86
2023/09/30 05:04:52;;;;;;;105.65;56.13;;;19.80;75.60;;;;;;4973228;28;89175;-88
2023/09/30 05:07:18;;;;;;;104.57;55.10;;;19.80;75.80;;;;;;4967766;22;89798;-40
2023/09/30 05:09:44;;;;;;;107.03;55.45;;;19.90;75.80;;;;;;4940256;28;90863;-40
2023/09/30 05:12:10;;;;;;;107.70;55.65;;;19.80;75.60;;;;;;4948938;28;89037;-40
2023/09/30 05:14:39;;;;;;;105.25;55.33;;;19.90;75.50;;;;;;4947528;28;90269;-39
2023/09/30 05:17:05;;;;;;;104.70;55.13;;;19.90;75.30;;;;;;4947422;28;88977;-40
2023/09/30 05:19:32;;;;;;;107.32;55.63;;;19.80;75.10;;;;;;4946178;28;90264;-39
2023/09/30 05:21:57;;;;;;;105.20;55.10;;;19.80;75.00;;;;;;4946354;28;90794;-40
2023/09/30 05:24:23;;;;;;;105.00;55.42;;;19.90;75.00;;;;;;4949453;28;90189;-39
2023/09/30 05:26:49;;;;;;;105.90;55.72;;;19.80;75.00;;;;;;4944303;28;90101;-40
2023/09/30 05:29:16;;;;;;;103.97;55.10;;;19.80;75.00;;;;;;4945759;28;90103;-41
2023/09/30 05:31:42;;;;;;;107.43;55.67;;;19.80;75.00;;;;;;4946038;28;91325;-40
2023/09/30 05:34:07;;;;;;;105.22;55.03;;;19.80;75.00;;;;;;4928813;28;90389;-39
2023/09/30 05:36:34;;;;;;;106.28;55.22;;;19.70;74.70;;;;;;4946993;28;91530;-39
2023/09/30 05:39:00;;;;;;;106.30;55.65;;;19.70;74.90;;;;;;4951549;28;91333;-42
2023/09/30 05:41:26;;;;;;;105.70;55.00;;;19.70;75.20;;;;;;4948384;28;88767;-39
2023/09/30 05:43:53;;;;;;;106.53;55.42;;;19.70;75.60;;;;;;4934373;28;89514;-39
2023/09/30 05:46:19;;;;;;;104.75;55.35;;;19.80;75.70;;;;;;4946395;28;90249;-39
2023/09/30 05:48:44;;;;;;;104.28;55.05;;;19.70;75.70;;;;;;4951377;28;90678;-39
2023/09/30 05:51:14;;;;;;;105.40;55.28;;;19.70;75.90;;;;;;4940707;28;93180;-39
2023/09/30 05:53:41;;;;;;;104.93;54.97;;;19.70;76.00;;;;;;4946853;28;89499;-39
2023/09/30 05:56:07;;;;;;;106.05;55.50;;;19.70;76.00;;;;;;4939555;28;92462;-39
2023/09/30 05:58:33;;;;;;;105.95;55.08;;;19.70;76.00;;;;;;4943047;28;90395;-39
2023/09/30 06:01:00;;;;;;;105.25;55.33;;;19.70;76.00;;;;;;4942525;28;90504;-39
2023/09/30 06:03:29;;;;;;;104.97;55.10;;;19.70;76.00;;;;;;4946202;28;90601;-39
2023/09/30 06:05:55;;;;;;;104.80;55.22;;;19.70;76.20;;;;;;4941054;28;88720;-39
2023/09/30 06:08:21;;;;;;;107.63;55.25;;;19.70;76.10;;;;;;4941445;28;89975;-39
2023/09/30 06:10:47;;;;;;;104.65;55.20;;;19.70;76.10;;;;;;4941460;28;89529;-39
2023/09/30 06:13:13;;;;;;;104.10;54.85;;;19.70;75.90;;;;;;4940896;28;90457;-40
2023/09/30 06:15:40;;;;;;;105.88;55.38;;;19.70;76.00;;;;;;4935129;28;89825;-39
2023/09/30 06:18:06;;;;;;;105.43;55.50;;;19.70;76.20;;;;;;4938528;28;90634;-39
2023/09/30 06:20:33;;;;;;;105.82;55.58;;;19.70;76.30;;;;;;4935516;28;93187;-39
2023/09/30 06:23:00;;;;;;;105.10;55.33;;;19.70;76.30;;;;;;4946874;28;91113;-39
2023/09/30 06:25:27;;;;;;;105.05;55.28;;;19.70;76.30;;;;;;4934231;28;93929;-40
2023/09/30 06:27:54;;;;;;;106.85;55.38;;;19.70;76.30;;;;;;4943735;28;89483;-41
2023/09/30 06:30:20;;;;;;;105.40;55.47;;;19.70;76.30;;;;;;4941549;28;88907;-40
2023/09/30 06:32:47;;;;;;;107.18;55.40;;;19.70;76.20;;;;;;4947634;28;90369;-40
2023/09/30 06:35:13;;;;;;;104.15;55.25;;;19.70;76.00;;;;;;4933950;28;95196;-40
2023/09/30 06:37:40;;;;;;;104.32;55.20;;;19.70;76.00;;;;;;4944626;28;91296;-39
2023/09/30 06:40:12;;;;;;;106.18;55.38;;;19.70;76.00;;;;;;4943345;28;90068;-39
2023/09/30 06:42:39;;;;;;;106.50;55.08;;;19.70;76.20;;;;;;4939773;28;90200;-39
2023/09/30 06:45:06;;;;;;;104.18;54.85;;;19.70;76.40;;;;;;4950362;28;90047;-39
2023/09/30 06:47:36;;;;;;;106.57;55.22;;;19.70;76.30;;;;;;4942622;28;89746;-39
2023/09/30 06:50:07;;;;;;;105.68;54.97;;;19.70;76.30;;;;;;4949600;28;89700;-39
2023/09/30 06:52:38;;;;;;;106.03;55.08;;;19.70;76.10;;;;;;4944819;28;89936;-40
2023/09/30 06:55:04;;;;;;;104.47;55.00;;;19.70;76.10;;;;;;4940298;28;88913;-38
2023/09/30 06:57:36;;;;;;;106.45;55.75;;;19.70;76.10;;;;;;4937557;28;90344;-39
2023/09/30 07:00:12;;;;;;;107.22;55.72;;;19.70;76.20;;;;;;4943428;28;90792;-39
2023/09/30 07:02:40;;;;;;;107.47;55.70;;;19.80;76.20;;;;;;4938407;28;91969;-39
2023/09/30 07:05:08;;;;;;;107.57;55.53;;;19.80;76.30;;;;;;4946013;28;92196;-40
2023/09/30 07:07:33;;;;;;;104.60;55.17;;;19.80;76.20;;;;;;4958350;28;89422;-39
2023/09/30 07:09:59;;;;;;;107.72;55.40;;;19.80;76.20;;;;;;4968476;28;94548;-40
2023/09/30 07:12:25;;;;;;;107.07;55.38;;;19.80;76.10;;;;;;4961520;28;89426;-39
2023/09/30 07:14:50;;;;;;;107.72;55.42;;;19.80;76.20;;;;;;4966186;28;90715;-40
2023/09/30 07:17:16;;;;;;;107.05;55.40;;;19.80;76.30;;;;;;4938399;28;91776;-39
2023/09/30 07:19:41;;;;;;;113.80;55.30;;;19.70;76.30;;;;;;4965276;28;90012;-40
2023/09/30 07:22:07;;;;;;;106.90;55.65;;;19.80;76.50;;;;;;4964123;28;90170;-39
2023/09/30 07:24:33;;;;;;;106.10;55.42;;;19.80;76.50;;;;;;4962464;28;89900;-41
2023/09/30 07:26:59;;;;;;;107.20;55.10;;;19.80;76.70;;;;;;4965757;28;91271;-38
2023/09/30 07:29:24;;;;;;;106.05;55.40;;;19.80;76.80;;;;;;4962823;28;91650;-39
2023/09/30 07:31:50;;;;;;;106.07;55.38;;;19.80;76.80;;;;;;4960361;28;92671;-39
2023/09/30 07:34:16;;;;;;;106.30;55.40;;;19.80;76.80;;;;;;4956245;28;90523;-40
2023/09/30 07:36:42;;;;;;;110.18;55.63;;;19.80;77.00;;;;;;4970177;28;90102;-39
2023/09/30 07:39:08;;;;;;;104.13;54.85;;;19.80;76.80;;;;;;4949705;28;92782;-39
2023/09/30 07:41:37;;;;;;;107.63;55.65;;;19.90;77.00;;;;;;4964333;28;89852;-39
2023/09/30 07:44:03;;;;;;;105.75;54.92;;;19.90;76.80;;;;;;4961231;28;90258;-39
2023/09/30 07:46:28;;;;;;;106.32;55.25;;;19.90;76.50;;;;;;4960414;28;89912;-39
2023/09/30 07:48:55;;;;;;;105.90;55.45;;;19.90;76.40;;;;;;4970955;28;89616;-40
2023/09/30 07:51:20;;;;;;;107.60;55.45;;;19.90;76.40;;;;;;4966034;28;90474;-39
2023/09/30 07:53:46;;;;;;;109.57;55.58;;;19.90;76.40;;;;;;4974283;28;90106;-40
2023/09/30 07:56:14;;;;;;;107.55;55.65;;;20.00;76.40;;;;;;4968789;28;91746;-40
2023/09/30 07:58:39;;;;;;;109.03;55.83;;;20.00;76.40;;;;;;4964977;28;90450;-39
2023/09/30 08:01:07;;;;;;;107.43;55.35;;;20.00;76.10;;;;;;4969762;28;90468;-40
2023/09/30 08:03:33;;;;;;;107.80;55.28;;;20.00;76.20;;;;;;4959950;28;90372;-40
2023/09/30 08:06:02;;;;;;;107.68;55.83;;;20.00;76.20;;;;;;4949829;28;90801;-39
2023/09/30 08:08:29;;;;;;;109.22;55.40;;;20.10;76.60;;;;;;4957071;28;90104;-41
2023/09/30 08:18:56;;;;;;;110.80;56.55;;;20.30;76.40;;;;;;4290670;22;90831;-40
2023/09/30 08:21:22;;;;;;;112.47;57.60;;;20.40;76.70;;;;;;4945876;28;91498;-40
2023/09/30 08:23:47;;;;;;;113.35;57.97;;;20.40;76.40;;;;;;4946597;28;89941;-39
2023/09/30 08:26:13;;;;;;;114.20;57.47;;;20.50;76.40;;;;;;4955361;28;90891;-42
2023/09/30 08:28:39;;;;;;;112.95;57.92;;;20.50;75.80;;;;;;4948887;28;94069;-40
2023/09/30 08:31:06;;;;;;;112.35;57.45;;;20.50;75.70;;;;;;4954989;28;89921;-40
2023/09/30 08:33:40;;;;;;;112.35;57.17;;;20.60;75.50;;;;;;4954071;28;91969;-41
2023/09/30 08:36:07;;;;;;;111.97;57.22;;;20.60;75.20;;;;;;4959287;28;90967;-40
2023/09/30 08:38:37;;;;;;;114.43;57.38;;;20.60;75.10;;;;;;4955276;28;89501;-40
2023/09/30 08:41:03;;;;;;;111.15;57.60;;;20.60;74.80;;;;;;4956528;28;92243;-40
2023/09/30 08:43:31;;;;;;;113.95;57.22;;;20.60;74.80;;;;;;4961500;28;89600;-39
2023/09/30 08:48:32;;;;;;;109.82;56.72;;;20.60;74.90;;;;;;4952428;28;90832;-86
2023/09/30 08:51:00;;;;;;;112.32;57.33;;;20.70;74.70;;;;;;4970733;28;90168;-86
2023/09/30 08:53:26;;;;;;;112.03;56.90;;;20.70;74.70;;;;;;4967822;28;92033;-84
2023/09/30 08:55:56;;;;;;;109.57;56.63;;;20.70;74.70;;;;;;4965975;28;92237;-83
2023/09/30 08:58:28;;;;;;;108.40;56.95;;;20.70;74.70;;;;;;4964077;28;91740;-86
2023/09/30 09:00:56;;;;;;;109.18;56.63;;;20.80;74.60;;;;;;4967788;28;89992;-86
2023/09/30 09:03:21;;;;;;;112.82;57.53;;;20.80;74.50;;;;;;4959824;28;91207;-86
2023/09/30 09:05:56;;;;;;;109.45;56.30;;;20.80;74.70;;;;;;4971767;28;90688;-86
2023/09/30 09:08:25;;;;;;;109.25;56.75;;;20.90;74.70;;;;;;4962813;28;90597;-84
2023/09/30 09:10:58;;;;;;;110.90;56.78;;;20.90;74.60;;;;;;4969542;28;88860;-84
2023/09/30 09:13:25;;;;;;;114.63;57.08;;;20.90;74.70;;;;;;4952642;28;90682;-85
2023/09/30 09:16:06;;;;;;;109.93;56.80;;;20.90;74.50;;;;;;4946315;28;92773;-87
2023/09/30 09:18:33;;;;;;;111.30;56.78;;;20.90;74.50;;;;;;4961570;28;95186;-87
2023/09/30 09:21:17;;;;;;;119.75;57.53;;;21.00;74.50;;;;;;4920139;28;97245;-83
2023/09/30 09:23:48;;;;;;;111.13;57.30;;;20.90;74.60;;;;;;4938234;28;89140;-81
2023/09/30 09:26:31;;;;;;;113.97;56.72;;;21.00;74.70;;;;;;4943409;28;90116;-85
2023/09/30 09:29:04;;;;;;;111.85;57.33;;;21.00;74.70;;;;;;4942241;28;90204;-82
2023/09/30 09:31:34;;;;;;;115.25;57.13;;;21.00;74.70;;;;;;4932461;28;91661;-82
2023/09/30 09:34:00;;;;;;;112.93;57.65;;;21.10;74.80;;;;;;4946462;28;90374;-88
2023/09/30 09:36:45;;;;;;;111.80;57.13;;;21.00;74.70;;;;;;4950050;28;90195;-85
2023/09/30 09:39:16;;;;;;;109.82;56.58;;;21.00;74.60;;;;;;4956308;28;90056;-85
2023/09/30 09:41:52;;;;;;;112.25;56.28;;;21.10;74.80;;;;;;4954925;28;89115;-85
2023/09/30 09:44:21;;;;;;;113.00;56.70;;;21.10;74.60;;;;;;4948354;28;89943;-84
2023/09/30 09:46:48;;;;;;;113.40;57.10;;;21.20;74.70;;;;;;4932527;28;93760;-85
2023/09/30 09:49:16;;;;;;;113.97;57.30;;;21.10;74.70;;;;;;4948142;28;89366;-85
2023/09/30 09:51:45;;;;;;;111.32;56.95;;;21.20;74.50;;;;;;4949316;28;89968;-86
2023/09/30 09:54:11;;;;;;;110.40;57.17;;;21.20;74.50;;;;;;4948631;28;89790;-84
2023/09/30 09:56:39;;;;;;;111.70;57.38;;;21.20;74.60;;;;;;4972171;28;91664;-85
2023/09/30 09:59:06;;;;;;;112.60;57.42;;;21.20;74.50;;;;;;4966350;28;90614;-86
2023/09/30 10:01:34;;;;;;;111.88;57.35;;;21.20;74.60;;;;;;4970529;28;90365;-85
2023/09/30 10:04:01;;;;;;;110.57;57.13;;;21.30;74.80;;;;;;4972273;28;91204;-87
2023/09/30 10:06:27;;;;;;;114.85;57.50;;;21.30;74.70;;;;;;4971953;22;90321;-43
2023/09/30 10:08:54;;;;;;;112.55;57.83;;;21.30;74.60;;;;;;4941161;28;89760;-45
2023/09/30 10:11:20;;;;;;;112.05;57.45;;;21.30;74.60;;;;;;4930984;28;92045;-42
2023/09/30 10:13:57;;;;;;;112.63;57.30;;;21.30;74.50;;;;;;4935782;28;89613;-42
2023/09/30 10:16:38;;;;;;;112.00;57.28;;;21.30;74.50;;;;;;4927353;28;90253;-42
2023/09/30 10:19:22;;;;;;;112.60;56.92;;;21.40;74.70;;;;;;4923667;28;90446;-42
2023/09/30 10:22:22;;;;;;;114.60;56.58;;;21.40;74.70;;;;;;4906413;28;93759;-42
2023/09/30 10:24:53;;;;;;;110.82;56.17;;;21.40;74.70;;;;;;4932367;28;90829;-42
2023/09/30 10:27:24;;;;;;;109.88;56.92;;;21.30;74.80;;;;;;4933807;28;89912;-43
2023/09/30 10:30:02;;;;;;;115.55;57.28;;;21.30;74.20;;;;;;4922257;28;94009;-42
2023/09/30 10:32:53;;;;;;;112.50;56.55;;;21.30;74.10;;;;;;4919839;28;90531;-42
2023/09/30 10:35:39;;;;;;;109.10;55.97;;;21.30;73.80;;;;;;4919524;28;91991;-42
2023/09/30 10:38:26;;;;;;;114.28;56.80;;;21.30;73.90;;;;;;4911653;28;89549;-43
2023/09/30 10:40:52;;;;;;;112.90;56.88;;;21.40;74.30;;;;;;4935782;28;89979;-43
2023/09/30 10:43:33;;;;;;;112.32;56.42;;;21.40;74.20;;;;;;4926831;28;90701;-42
2023/09/30 10:46:05;;;;;;;113.72;57.15;;;21.40;74.10;;;;;;4913673;28;94465;-41
2023/09/30 10:48:31;;;;;;;113.43;56.55;;;21.40;74.50;;;;;;4932559;28;91443;-42
2023/09/30 10:51:10;;;;;;;114.30;56.65;;;21.50;74.60;;;;;;4916583;28;91001;-42
2023/09/30 10:53:52;;;;;;;110.65;56.30;;;21.50;74.70;;;;;;4930303;28;90579;-41
2023/09/30 10:56:19;;;;;;;113.97;57.38;;;21.60;74.90;;;;;;4927909;28;91841;-42
2023/09/30 10:58:47;;;;;;;112.28;56.78;;;21.60;75.60;;;;;;4923310;28;94728;-43
2023/09/30 11:01:14;;;;;;;112.25;57.30;;;21.70;75.00;;;;;;4917016;28;90394;-42
2023/09/30 11:07:02;;;;;;;111.40;56.25;;;21.80;75.20;;;;;;3635098;22;92363;-37
2023/09/30 11:09:27;;;;;;;113.75;57.35;;;21.70;74.40;;;;;;4902106;22;90096;-42
2023/09/30 11:16:59;;;;;;;115.68;57.50;;;21.50;74.60;;;;;;4909539;28;92126;-42
2023/09/30 11:19:24;;;;;;;114.15;58.40;;;21.50;75.00;;;;;;4920125;28;91516;-41
2023/09/30 11:21:55;;;;;;;119.65;58.50;;;21.50;75.30;;;;;;4931686;28;90134;-41
2023/09/30 11:24:21;;;;;;;121.03;58.27;;;21.40;75.30;;;;;;4935288;28;90177;-41
2023/09/30 11:26:47;;;;;;;113.45;57.60;;;21.40;75.50;;;;;;4933227;28;89779;-40
2023/09/30 11:29:18;;;;;;;115.63;57.72;;;21.40;75.40;;;;;;4937235;28;92819;-41
2023/09/30 11:31:46;;;;;;;115.40;57.43;;;21.40;75.60;;;;;;4938322;28;90046;-41
2023/09/30 11:34:12;;;;;;;113.32;57.65;;;21.50;75.60;;;;;;4936072;28;92589;-41
2023/09/30 11:36:42;;;;;;;114.28;57.47;;;21.50;75.50;;;;;;4933342;28;89514;-41
2023/09/30 11:39:09;;;;;;;116.45;57.35;;;21.50;75.70;;;;;;4940689;28;93059;-42
2023/09/30 11:41:39;;;;;;;114.80;57.50;;;21.50;75.50;;;;;;4935047;28;90231;-41
2023/09/30 11:44:07;;;;;;;113.43;57.08;;;21.50;75.50;;;;;;4916005;28;95894;-42
2023/09/30 11:46:53;;;;;;;113.57;56.67;;;21.60;75.60;;;;;;4929462;28;89452;-41
2023/09/30 11:49:29;;;;;;;116.35;57.63;;;21.60;75.50;;;;;;4934882;28;89671;-41
2023/09/30 11:51:59;;;;;;;115.63;57.20;;;21.60;75.50;;;;;;4908922;28;90907;-41
2023/09/30 11:54:30;;;;;;;111.97;57.30;;;21.60;75.60;;;;;;4929233;28;90116;-41
2023/09/30 11:56:56;;;;;;;110.68;57.20;;;21.60;75.50;;;;;;4936505;28;89305;-42
2023/09/30 11:59:22;;;;;;;112.32;57.08;;;21.60;75.50;;;;;;4936343;28;89692;-41
2023/09/30 12:01:51;;;;;;;116.35;57.15;;;21.60;75.30;;;;;;4940813;28;91711;-41
2023/09/30 12:04:19;;;;;;;111.47;57.30;;;21.70;75.40;;;;;;4930118;28;91861;-41
2023/09/30 12:06:45;;;;;;;112.63;57.28;;;21.70;75.50;;;;;;4932784;28;89552;-42
2023/09/30 12:09:14;;;;;;;112.88;57.25;;;21.70;75.40;;;;;;4931339;28;90485;-41
2023/09/30 12:11:43;;;;;;;112.28;57.22;;;21.70;75.40;;;;;;4921150;28;90949;-41
2023/09/30 12:14:12;;;;;;;111.50;57.13;;;21.70;75.60;;;;;;4939140;28;89194;-41
2023/09/30 12:16:39;;;;;;;112.40;57.20;;;21.70;75.90;;;;;;4932822;28;89562;-41
2023/09/30 12:19:08;;;;;;;114.65;57.42;;;21.80;76.30;;;;;;4936948;28;89952;-42
2023/09/30 12:21:34;;;;;;;113.95;57.35;;;21.80;76.30;;;;;;4930045;28;88822;-41
2023/09/30 12:24:03;;;;;;;113.20;57.85;;;21.80;76.40;;;;;;4928127;28;89838;-40
2023/09/30 12:26:30;;;;;;;116.50;57.67;;;21.90;76.80;;;;;;4939011;28;90881;-40
2023/09/30 12:28:56;;;;;;;111.85;57.83;;;22.00;76.30;;;;;;4931501;28;90827;-41
2023/09/30 12:31:23;;;;;;;115.72;57.58;;;22.10;76.10;;;;;;4927554;28;90056;-42
2023/09/30 12:33:51;;;;;;;113.45;57.50;;;22.10;76.20;;;;;;4924630;28;89611;-41
2023/09/30 12:36:20;;;;;;;115.35;57.58;;;22.10;76.40;;;;;;4928966;28;90957;-41
2023/09/30 12:38:47;;;;;;;115.75;57.83;;;22.20;76.50;;;;;;4925979;28;90587;-41
2023/09/30 12:41:14;;;;;;;115.45;57.60;;;22.20;76.50;;;;;;4931590;28;92559;-42